Buse Trio — 3FYO5 — position and weather

sailwx.info

Track history (hours):
 
Tides and Currents Weather Stations Pressure Air Temp Water Temp Dewpoint Dewpoint Depression Visibility Wind Speed Wind Dir Waves Ship Positions

Buse Trio

Last reported at 2018-Jun-20 04:53 UTC. Time now 2018-Jun-22 11:30 UTC.
Position N 37°26' E 025°32'.

Length 81 m; draft 3.4 m.

Type: Cargo ship. MMSI: 371512000.

Date/timePositionNaut miles runAvg speedWind from/ knotsBaromVisibWave heightAir tempDewpointWater temp
2018-Jun-20 04:53N 37°26' E 025°32'5 9.1
2018-Jun-20 04:20N 37°24' E 025°27'3 9.2
2018-Jun-20 04:00N 37°22' E 025°23'5 9.4
2018-Jun-20 03:30N 37°20' E 025°18'5 9.2
2018-Jun-20 03:00N 37°18' E 025°13'7 9.1
2018-Jun-20 02:13N 37°15' E 025°05'2 9.2
2018-Jun-20 02:00N 37°14' E 025°03'5 9.4
2018-Jun-20 01:30N 37°12' E 024°57'447 8.7
2018-Jun-17 21:55N 38°03' E 015°36'5 9.3
2018-Jun-17 21:25N 38°07' E 015°35'4 9.0
2018-Jun-17 21:01N 38°11' E 015°36'4 7.9
2018-Jun-17 20:30N 38°15' E 015°37'5 5.4
2018-Jun-17 19:37N 38°19' E 015°34'110.6
2018-Jun-17 19:29N 38°19' E 015°33'510.3
2018-Jun-17 19:01N 38°19' E 015°26'510.2
2018-Jun-17 18:30N 38°18' E 015°20'510.2
2018-Jun-17 18:00N 38°18' E 015°14'510.1
2018-Jun-17 17:30N 38°16' E 015°07'64 9.7
2018-Jun-17 10:53N 38°15' E 013°45'4 9.4
2018-Jun-17 10:29N 38°16' E 013°41'5 9.5
2018-Jun-17 09:57N 38°16' E 013°34'4 9.5
2018-Jun-17 09:30N 38°16' E 013°29'5 9.6
2018-Jun-17 09:00N 38°17' E 013°23'5 9.7
2018-Jun-17 08:30N 38°16' E 013°17'5 9.8
2018-Jun-17 08:00N 38°16' E 013°10'5 9.7
2018-Jun-17 07:30N 38°16' E 013°04'5 9.6
2018-Jun-17 07:00N 38°16' E 012°58'  
2018-Jun-14 04:03N 36°43' E 001°32'111.1
2018-Jun-14 04:00N 36°42' E 001°31'711.0
2018-Jun-14 03:25N 36°41' E 001°23'511.2
2018-Jun-14 02:56N 36°40' E 001°17'511.2
2018-Jun-14 02:28N 36°40' E 001°10'511.3
2018-Jun-14 02:00N 36°39' E 001°04'611.3
2018-Jun-14 01:30N 36°37' E 000°57'510.9
2018-Jun-14 01:00N 36°37' E 000°50'3810.1
2018-Jun-13 21:12N 36°30' E 000°03'210.3
2018-Jun-13 20:59N 36°29' E 000°01'510.3
2018-Jun-13 20:30N 36°29' W 000°06'25010.5
2018-Jun-12 20:45N 35°59' W 005°14'313.7
2018-Jun-12 20:30N 35°59' W 005°18'713.2
2018-Jun-12 20:00N 35°57' W 005°26'  
Track history (hours):
 
Tides and Currents Weather Stations Pressure Air Temp Water Temp Dewpoint Dewpoint Depression Visibility Wind Speed Wind Dir Waves Ship Positions

Buse Trio

Last reported at 2018-Jun-20 04:53 UTC. Time now 2018-Jun-22 11:30 UTC.
Position N 37°26' E 025°32'.

Length 81 m; draft 3.4 m.

Type: Cargo ship. MMSI: 371512000.

Date/timePositionNaut miles runAvg speedWind from/ knotsBaromVisibWave heightAir tempDewpointWater temp
2018-Jun-20 04:53N 37°26' E 025°32'5 9.1
2018-Jun-20 04:20N 37°24' E 025°27'3 9.2
2018-Jun-20 04:00N 37°22' E 025°23'5 9.4
2018-Jun-20 03:30N 37°20' E 025°18'5 9.2
2018-Jun-20 03:00N 37°18' E 025°13'7 9.1
2018-Jun-20 02:13N 37°15' E 025°05'2 9.2
2018-Jun-20 02:00N 37°14' E 025°03'5 9.4
2018-Jun-20 01:30N 37°12' E 024°57'447 8.7
2018-Jun-17 21:55N 38°03' E 015°36'5 9.3
2018-Jun-17 21:25N 38°07' E 015°35'4 9.0
2018-Jun-17 21:01N 38°11' E 015°36'4 7.9
2018-Jun-17 20:30N 38°15' E 015°37'5 5.4
2018-Jun-17 19:37N 38°19' E 015°34'110.6
2018-Jun-17 19:29N 38°19' E 015°33'510.3
2018-Jun-17 19:01N 38°19' E 015°26'510.2
2018-Jun-17 18:30N 38°18' E 015°20'510.2
2018-Jun-17 18:00N 38°18' E 015°14'510.1
2018-Jun-17 17:30N 38°16' E 015°07'64 9.7
2018-Jun-17 10:53N 38°15' E 013°45'4 9.4
2018-Jun-17 10:29N 38°16' E 013°41'5 9.5
2018-Jun-17 09:57N 38°16' E 013°34'4 9.5
2018-Jun-17 09:30N 38°16' E 013°29'5 9.6
2018-Jun-17 09:00N 38°17' E 013°23'5 9.7
2018-Jun-17 08:30N 38°16' E 013°17'5 9.8
2018-Jun-17 08:00N 38°16' E 013°10'5 9.7
2018-Jun-17 07:30N 38°16' E 013°04'5 9.6
2018-Jun-17 07:00N 38°16' E 012°58'  
2018-Jun-14 04:03N 36°43' E 001°32'111.1
2018-Jun-14 04:00N 36°42' E 001°31'711.0
2018-Jun-14 03:25N 36°41' E 001°23'511.2
2018-Jun-14 02:56N 36°40' E 001°17'511.2
2018-Jun-14 02:28N 36°40' E 001°10'511.3
2018-Jun-14 02:00N 36°39' E 001°04'611.3
2018-Jun-14 01:30N 36°37' E 000°57'510.9
2018-Jun-14 01:00N 36°37' E 000°50'3810.1
2018-Jun-13 21:12N 36°30' E 000°03'210.3
2018-Jun-13 20:59N 36°29' E 000°01'510.3
2018-Jun-13 20:30N 36°29' W 000°06'25010.5
2018-Jun-12 20:45N 35°59' W 005°14'313.7
2018-Jun-12 20:30N 35°59' W 005°18'713.2
2018-Jun-12 20:00N 35°57' W 005°26'  

Dump ship's entire track history